Time;durP1;ratioP1;P1;durP2;ratioP2;P2;SDS_P1;SDS_P2;PMS_P1;PMS_P2;Temp;Humidity;BMP_temperature;BMP_pressure;BME280_temperature;BME280_humidity;BME280_pressure;Samples;Min_cycle;Max_cycle;Signal;HPM_P1;HPM_P2
2021/10/08 00:01:09;;;;;;;45.20;22.90;;;;;;;;;;761821;181;919105;-62
2021/10/08 00:03:35;;;;;;;46.27;24.20;;;;;;;;;;766464;182;919472;-60
2021/10/08 00:06:01;;;;;;;47.35;23.12;;;;;;;;;;747964;187;919541;-61
2021/10/08 00:08:26;;;;;;;45.50;22.73;;;;;;;;;;769202;182;918801;-61
2021/10/08 00:10:52;;;;;;;48.67;25.20;;;;;;;;;;771996;182;919291;-61
2021/10/08 00:13:18;;;;;;;43.63;22.70;;;;;;;;;;759717;182;918711;-61
2021/10/08 00:15:44;;;;;;;50.67;25.03;;;;;;;;;;748305;186;919416;-63
2021/10/08 00:18:10;;;;;;;43.03;23.50;;;;;;;;;;737572;189;917971;-62
2021/10/08 00:20:36;;;;;;;36.63;21.43;;;;;;;;;;762050;182;918243;-62
2021/10/08 00:23:02;;;;;;;38.03;21.93;;;;;;;;;;744851;185;919117;-61
2021/10/08 00:25:27;;;;;;;44.73;23.23;;;;;;;;;;745034;186;920303;-62
2021/10/08 00:27:53;;;;;;;41.70;20.87;;;;;;;;;;771824;182;919076;-61
2021/10/08 00:30:19;;;;;;;51.17;22.63;;;;;;;;;;764410;180;918531;-61
2021/10/08 00:32:45;;;;;;;57.90;22.27;;;;;;;;;;765691;181;920177;-61
2021/10/08 00:35:11;;;;;;;42.37;22.03;;;;;;;;;;766513;181;919420;-62
2021/10/08 00:37:37;;;;;;;54.30;24.47;;;;;;;;;;764526;181;918889;-61
2021/10/08 00:40:02;;;;;;;44.53;22.40;;;;;;;;;;766679;181;924250;-61
2021/10/08 00:42:30;;;;;;;39.47;21.63;;;;;;;;;;775310;181;919268;-62
2021/10/08 00:44:54;;;;;;;54.30;23.73;;;;;;;;;;767166;182;918334;-60
2021/10/08 00:47:20;;;;;;;53.83;23.05;;;;;;;;;;764729;182;920210;-61
2021/10/08 00:49:46;;;;;;;44.13;23.30;;;;;;;;;;764008;182;922444;-61
2021/10/08 00:52:12;;;;;;;49.50;23.57;;;;;;;;;;769258;182;918777;-63
2021/10/08 00:54:37;;;;;;;55.50;22.47;;;;;;;;;;764886;182;919501;-61
2021/10/08 00:57:03;;;;;;;47.13;22.03;;;;;;;;;;760593;182;917837;-60
2021/10/08 00:59:29;;;;;;;52.33;22.80;;;;;;;;;;765242;182;917309;-62
2021/10/08 01:01:55;;;;;;;62.10;23.10;;;;;;;;;;763012;181;917023;-62
2021/10/08 01:04:21;;;;;;;43.40;23.37;;;;;;;;;;762633;181;919879;-61
2021/10/08 01:06:47;;;;;;;58.17;24.53;;;;;;;;;;766004;182;913973;-60
2021/10/08 01:09:12;;;;;;;56.00;24.40;;;;;;;;;;767558;182;940664;-61
2021/10/08 01:11:41;;;;;;;49.47;21.87;;;;;;;;;;755275;180;921452;-61
2021/10/08 01:14:06;;;;;;;33.87;21.73;;;;;;;;;;765722;181;917422;-60
2021/10/08 01:16:31;;;;;;;37.27;21.70;;;;;;;;;;766128;182;915381;-61
2021/10/08 01:18:57;;;;;;;48.93;23.27;;;;;;;;;;768319;179;916572;-60
2021/10/08 01:21:23;;;;;;;40.65;21.20;;;;;;;;;;754306;182;915456;-61
2021/10/08 01:23:49;;;;;;;43.93;21.47;;;;;;;;;;771393;182;916346;-61
2021/10/08 01:26:15;;;;;;;44.00;21.70;;;;;;;;;;758612;183;919449;-61
2021/10/08 01:28:41;;;;;;;46.10;22.63;;;;;;;;;;761227;182;927000;-61
2021/10/08 01:31:07;;;;;;;46.57;21.50;;;;;;;;;;768327;182;920898;-61
2021/10/08 01:33:32;;;;;;;59.40;23.53;;;;;;;;;;764824;182;919896;-60
2021/10/08 01:35:58;;;;;;;36.97;21.23;;;;;;;;;;766388;182;919080;-62
2021/10/08 01:38:24;;;;;;;48.80;20.77;;;;;;;;;;763281;182;919211;-61
2021/10/08 01:40:50;;;;;;;47.10;19.00;;;;;;;;;;755057;182;919509;-62
2021/10/08 01:43:16;;;;;;;39.90;20.92;;;;;;;;;;762547;182;919887;-63
2021/10/08 01:45:42;;;;;;;40.10;21.70;;;;;;;;;;767177;181;918686;-65
2021/10/08 01:48:07;;;;;;;36.50;22.50;;;;;;;;;;769991;180;920824;-62
2021/10/08 01:50:33;;;;;;;54.20;24.27;;;;;;;;;;764755;181;919762;-61
2021/10/08 01:52:59;;;;;;;41.63;20.67;;;;;;;;;;764046;179;923031;-61
2021/10/08 01:55:25;;;;;;;43.10;20.13;;;;;;;;;;770349;180;904614;-61
2021/10/08 01:57:51;;;;;;;45.03;23.53;;;;;;;;;;765257;181;919347;-61
2021/10/08 02:00:17;;;;;;;45.00;21.70;;;;;;;;;;765471;181;919863;-62
2021/10/08 02:02:42;;;;;;;47.67;23.53;;;;;;;;;;770354;181;916890;-62
2021/10/08 02:05:08;;;;;;;38.93;22.30;;;;;;;;;;762484;180;919237;-62
2021/10/08 02:07:34;;;;;;;42.83;23.02;;;;;;;;;;765645;182;916276;-61
2021/10/08 02:10:00;;;;;;;32.73;20.10;;;;;;;;;;763455;182;916017;-61
2021/10/08 02:12:26;;;;;;;47.83;22.57;;;;;;;;;;764218;181;919857;-61
2021/10/08 02:14:52;;;;;;;46.60;21.60;;;;;;;;;;760296;182;918973;-62
2021/10/08 02:17:18;;;;;;;38.30;20.23;;;;;;;;;;764979;181;919495;-60
2021/10/08 02:19:43;;;;;;;37.63;21.13;;;;;;;;;;768497;182;919358;-62
2021/10/08 02:22:09;;;;;;;37.00;22.87;;;;;;;;;;767155;180;919603;-64
2021/10/08 02:24:35;;;;;;;48.73;22.77;;;;;;;;;;764324;182;918676;-62
2021/10/08 02:27:01;;;;;;;44.80;23.60;;;;;;;;;;765762;182;919235;-61
2021/10/08 02:29:27;;;;;;;70.63;23.40;;;;;;;;;;764411;182;918906;-61
2021/10/08 02:31:53;;;;;;;39.30;21.47;;;;;;;;;;759428;182;918172;-60
2021/10/08 02:34:18;;;;;;;43.57;23.37;;;;;;;;;;763530;181;917899;-61
2021/10/08 02:36:44;;;;;;;44.90;22.13;;;;;;;;;;764433;183;918663;-62
2021/10/08 02:39:10;;;;;;;45.67;24.90;;;;;;;;;;767504;181;918900;-62
2021/10/08 02:41:36;;;;;;;41.70;23.00;;;;;;;;;;762674;181;918880;-63
2021/10/08 02:44:02;;;;;;;41.17;25.87;;;;;;;;;;775648;182;919116;-62
2021/10/08 02:46:28;;;;;;;44.63;24.17;;;;;;;;;;763905;182;918782;-61
2021/10/08 02:48:53;;;;;;;51.20;24.13;;;;;;;;;;762711;182;919796;-61
2021/10/08 02:51:19;;;;;;;50.53;26.37;;;;;;;;;;770121;182;919053;-62
2021/10/08 02:53:45;;;;;;;47.37;23.43;;;;;;;;;;763375;181;919132;-62
2021/10/08 02:56:11;;;;;;;49.90;24.33;;;;;;;;;;758343;181;919800;-62
2021/10/08 02:58:37;;;;;;;49.37;23.80;;;;;;;;;;769162;182;919740;-62
2021/10/08 03:01:03;;;;;;;49.80;25.73;;;;;;;;;;761292;182;919317;-61
2021/10/08 03:03:28;;;;;;;59.03;24.90;;;;;;;;;;762357;181;918785;-62
2021/10/08 03:05:54;;;;;;;53.63;27.30;;;;;;;;;;748917;186;919308;-62
2021/10/08 03:08:20;;;;;;;51.70;24.87;;;;;;;;;;759102;183;917545;-62
2021/10/08 03:10:46;;;;;;;53.93;25.60;;;;;;;;;;750628;181;920185;-62
2021/10/08 03:13:12;;;;;;;55.03;25.20;;;;;;;;;;761800;181;919868;-64
2021/10/08 03:15:38;;;;;;;46.20;27.07;;;;;;;;;;769187;182;918670;-61
2021/10/08 03:18:03;;;;;;;48.80;26.80;;;;;;;;;;765400;182;919064;-61
2021/10/08 03:20:32;;;;;;;61.20;27.08;;;;;;;;;;767354;181;921638;-63
2021/10/08 03:22:55;;;;;;;51.63;28.23;;;;;;;;;;765344;182;922340;-62
2021/10/08 03:25:21;;;;;;;46.70;27.70;;;;;;;;;;755483;183;919678;-62
2021/10/08 03:27:47;;;;;;;59.57;29.57;;;;;;;;;;765157;182;918719;-62
2021/10/08 03:30:14;;;;;;;46.83;26.73;;;;;;;;;;763327;182;919665;-61
2021/10/08 03:32:39;;;;;;;50.03;28.43;;;;;;;;;;760035;182;919582;-62
2021/10/08 03:35:05;;;;;;;45.15;25.65;;;;;;;;;;764864;182;919099;-62
2021/10/08 03:38:08;;;;;;;52.00;26.73;;;;;;;;;;765539;182;1021411;-62
2021/10/08 03:40:20;;;;;;;50.60;26.73;;;;;;;;;;759564;181;918640;-63
2021/10/08 03:42:38;;;;;;;52.53;27.27;;;;;;;;;;765990;183;929685;-63
2021/10/08 03:45:11;;;;;;;55.47;28.43;;;;;;;;;;748869;184;918840;-64
2021/10/08 03:47:50;;;;;;;57.27;27.70;;;;;;;;;;748466;186;920456;-64
2021/10/08 03:49:59;;;;;;;55.63;28.43;;;;;;;;;;751635;186;932423;-63
2021/10/08 03:52:25;;;;;;;52.20;29.40;;;;;;;;;;768496;180;919436;-62
2021/10/08 03:54:51;;;;;;;76.77;30.37;;;;;;;;;;764870;182;920199;-62
2021/10/08 03:57:17;;;;;;;61.50;28.93;;;;;;;;;;763190;181;919177;-63
2021/10/08 03:59:43;;;;;;;54.57;28.40;;;;;;;;;;758755;182;919469;-62
2021/10/08 04:02:08;;;;;;;50.03;29.40;;;;;;;;;;764530;182;920077;-64
2021/10/08 04:04:34;;;;;;;61.53;30.00;;;;;;;;;;772274;182;620153;-63
2021/10/08 04:07:00;;;;;;;62.17;30.90;;;;;;;;;;772464;182;919617;-65
2021/10/08 04:09:26;;;;;;;77.40;31.43;;;;;;;;;;764611;181;620280;-64
2021/10/08 04:11:52;;;;;;;63.50;29.10;;;;;;;;;;769483;181;915666;-63
2021/10/08 04:14:18;;;;;;;71.67;32.70;;;;;;;;;;774605;181;916871;-63
2021/10/08 04:16:43;;;;;;;66.80;30.07;;;;;;;;;;765681;182;916971;-63
2021/10/08 04:19:09;;;;;;;59.60;29.53;;;;;;;;;;764402;181;919372;-63
2021/10/08 04:21:35;;;;;;;57.60;31.25;;;;;;;;;;767989;182;917831;-63
2021/10/08 04:24:01;;;;;;;66.33;29.93;;;;;;;;;;765123;182;917935;-63
2021/10/08 04:26:27;;;;;;;80.50;33.60;;;;;;;;;;765130;182;1098568;-63
2021/10/08 04:28:53;;;;;;;62.93;32.07;;;;;;;;;;766610;181;918657;-65
2021/10/08 04:31:18;;;;;;;60.37;32.60;;;;;;;;;;773397;182;633785;-62
2021/10/08 04:33:44;;;;;;;75.20;31.13;;;;;;;;;;769650;182;918079;-63
2021/10/08 04:36:10;;;;;;;63.17;34.67;;;;;;;;;;766236;181;918800;-63
2021/10/08 04:38:36;;;;;;;69.70;34.90;;;;;;;;;;769008;181;919512;-63
2021/10/08 04:41:02;;;;;;;54.60;30.80;;;;;;;;;;765043;182;918986;-64
2021/10/08 04:43:28;;;;;;;62.37;33.37;;;;;;;;;;762947;182;919293;-63
2021/10/08 04:45:53;;;;;;;60.67;31.77;;;;;;;;;;775204;182;617151;-63
2021/10/08 04:48:19;;;;;;;59.53;29.70;;;;;;;;;;765378;181;928129;-64
2021/10/08 04:50:45;;;;;;;66.40;30.90;;;;;;;;;;760730;181;919301;-63
2021/10/08 04:53:11;;;;;;;57.47;30.67;;;;;;;;;;762898;181;919383;-62
2021/10/08 04:55:37;;;;;;;91.17;36.50;;;;;;;;;;772924;182;1023665;-62
2021/10/08 04:58:03;;;;;;;56.40;29.73;;;;;;;;;;760592;182;920894;-63
2021/10/08 05:00:29;;;;;;;56.30;29.20;;;;;;;;;;764936;182;920380;-63
2021/10/08 05:02:54;;;;;;;55.60;30.50;;;;;;;;;;768508;182;916368;-63
2021/10/08 05:05:20;;;;;;;69.80;35.92;;;;;;;;;;763041;182;919253;-63
2021/10/08 05:07:46;;;;;;;70.63;34.50;;;;;;;;;;765438;182;918156;-63
2021/10/08 05:10:12;;;;;;;71.20;30.27;;;;;;;;;;769251;182;915872;-62
2021/10/08 05:12:38;;;;;;;72.87;33.50;;;;;;;;;;765656;181;919999;-64
2021/10/08 05:15:04;;;;;;;61.23;33.83;;;;;;;;;;765904;182;936892;-63
2021/10/08 05:17:30;;;;;;;76.47;34.20;;;;;;;;;;767856;182;917906;-63
2021/10/08 05:19:55;;;;;;;61.87;33.47;;;;;;;;;;761724;180;943233;-63
2021/10/08 05:22:21;;;;;;;75.03;35.10;;;;;;;;;;769920;180;915822;-63
2021/10/08 05:24:47;;;;;;;72.43;34.00;;;;;;;;;;767977;180;914614;-63
2021/10/08 05:27:13;;;;;;;80.17;36.17;;;;;;;;;;770744;181;914845;-63
2021/10/08 05:29:39;;;;;;;63.40;31.70;;;;;;;;;;763210;181;919494;-67
2021/10/08 05:32:05;;;;;;;68.53;33.53;;;;;;;;;;763943;181;927310;-62
2021/10/08 05:34:31;;;;;;;69.03;35.40;;;;;;;;;;773178;181;919002;-63
2021/10/08 05:36:57;;;;;;;73.43;38.37;;;;;;;;;;762288;180;918793;-62
2021/10/08 05:39:22;;;;;;;70.83;38.30;;;;;;;;;;762513;181;919370;-63
2021/10/08 05:41:48;;;;;;;71.20;34.03;;;;;;;;;;774206;181;811979;-65
2021/10/08 05:44:14;;;;;;;66.83;36.77;;;;;;;;;;764951;182;1020923;-61
2021/10/08 05:46:40;;;;;;;75.43;36.30;;;;;;;;;;764347;180;1002402;-64
2021/10/08 05:49:06;;;;;;;67.70;36.77;;;;;;;;;;764777;182;918548;-62
2021/10/08 05:51:32;;;;;;;79.07;35.03;;;;;;;;;;769073;182;918950;-63
2021/10/08 05:53:58;;;;;;;84.00;35.87;;;;;;;;;;764317;182;933786;-63
2021/10/08 05:56:23;;;;;;;75.47;37.70;;;;;;;;;;763634;180;919041;-63
2021/10/08 05:58:49;;;;;;;87.10;35.33;;;;;;;;;;769670;183;918027;-62
2021/10/08 06:01:15;;;;;;;83.40;37.00;;;;;;;;;;766575;181;919081;-63
2021/10/08 06:03:41;;;;;;;68.13;35.37;;;;;;;;;;763950;182;919065;-62
2021/10/08 06:06:07;;;;;;;70.37;36.93;;;;;;;;;;769343;182;919388;-63
2021/10/08 06:08:33;;;;;;;83.53;35.37;;;;;;;;;;765080;182;918655;-63
2021/10/08 06:10:59;;;;;;;79.00;39.43;;;;;;;;;;756807;181;917506;-62
2021/10/08 06:13:25;;;;;;;81.90;38.30;;;;;;;;;;749336;186;920460;-62
2021/10/08 06:15:50;;;;;;;87.63;38.77;;;;;;;;;;764049;180;918498;-63
2021/10/08 06:18:16;;;;;;;76.28;38.88;;;;;;;;;;767114;181;919203;-62
2021/10/08 06:20:42;;;;;;;83.97;41.13;;;;;;;;;;746590;186;918328;-62
2021/10/08 06:23:08;;;;;;;84.60;41.63;;;;;;;;;;770647;182;917500;-62
2021/10/08 06:25:34;;;;;;;77.60;39.97;;;;;;;;;;764253;182;915562;-62
2021/10/08 06:27:59;;;;;;;81.03;38.07;;;;;;;;;;762724;180;915854;-63
2021/10/08 06:30:25;;;;;;;99.53;39.40;;;;;;;;;;768869;182;924498;-62
2021/10/08 06:32:52;;;;;;;88.47;41.73;;;;;;;;;;765155;182;912405;-62
2021/10/08 06:35:17;;;;;;;98.57;43.20;;;;;;;;;;764579;182;918704;-62
2021/10/08 06:37:43;;;;;;;90.03;43.20;;;;;;;;;;767922;181;961209;-62
2021/10/08 06:40:09;;;;;;;80.40;40.67;;;;;;;;;;767362;181;918803;-62
2021/10/08 06:42:35;;;;;;;94.57;42.30;;;;;;;;;;766621;181;922381;-62
2021/10/08 06:45:00;;;;;;;82.30;37.03;;;;;;;;;;759348;182;922426;-63
2021/10/08 06:47:26;;;;;;;89.07;41.03;;;;;;;;;;768932;181;1117623;-62
2021/10/08 06:49:52;;;;;;;82.28;40.33;;;;;;;;;;766477;180;917551;-62
2021/10/08 06:52:18;;;;;;;98.97;42.77;;;;;;;;;;759147;181;919415;-63
2021/10/08 06:54:44;;;;;;;83.35;35.58;;;;;;;;;;771907;182;919813;-63
2021/10/08 06:57:10;;;;;;;107.33;41.17;;;;;;;;;;763663;182;918445;-62
2021/10/08 06:59:35;;;;;;;77.47;36.50;;;;;;;;;;762948;182;919081;-61
2021/10/08 07:02:01;;;;;;;76.97;34.95;;;;;;;;;;773868;182;920348;-64
2021/10/08 07:04:27;;;;;;;63.50;33.77;;;;;;;;;;770486;182;920219;-62
2021/10/08 07:06:53;;;;;;;75.60;34.10;;;;;;;;;;766664;182;918595;-63
2021/10/08 07:09:19;;;;;;;54.73;31.97;;;;;;;;;;770281;182;918913;-62
2021/10/08 07:11:45;;;;;;;58.33;29.07;;;;;;;;;;767790;182;625362;-62
2021/10/08 07:14:11;;;;;;;71.67;32.53;;;;;;;;;;765500;182;915638;-63
2021/10/08 07:16:37;;;;;;;47.43;26.87;;;;;;;;;;764355;181;915915;-61
2021/10/08 07:19:09;;;;;;;57.30;31.03;;;;;;;;;;765010;182;916143;-63
2021/10/08 07:21:34;;;;;;;76.03;34.23;;;;;;;;;;761378;180;914719;-62
2021/10/08 07:24:00;;;;;;;69.03;35.80;;;;;;;;;;765792;181;915123;-62
2021/10/08 07:26:25;;;;;;;77.83;33.60;;;;;;;;;;763943;182;919649;-62
2021/10/08 07:28:51;;;;;;;74.97;34.93;;;;;;;;;;763661;182;918325;-62
2021/10/08 07:31:17;;;;;;;65.90;34.70;;;;;;;;;;764757;182;919879;-64
2021/10/08 07:33:43;;;;;;;73.93;32.60;;;;;;;;;;745844;186;918830;-62
2021/10/08 07:36:09;;;;;;;65.73;31.90;;;;;;;;;;738082;189;919196;-61
2021/10/08 07:38:35;;;;;;;72.30;35.00;;;;;;;;;;763872;181;921171;-63
2021/10/08 07:41:00;;;;;;;67.90;33.50;;;;;;;;;;763673;181;919390;-62
2021/10/08 07:43:26;;;;;;;75.73;32.47;;;;;;;;;;771284;181;912814;-62
2021/10/08 07:45:52;;;;;;;67.23;33.70;;;;;;;;;;758109;181;921074;-62
2021/10/08 07:48:18;;;;;;;56.05;32.63;;;;;;;;;;759817;182;920651;-62
2021/10/08 07:50:44;;;;;;;61.83;31.20;;;;;;;;;;766006;180;918160;-62
2021/10/08 07:53:10;;;;;;;63.30;32.27;;;;;;;;;;769573;181;915220;-62
2021/10/08 07:55:36;;;;;;;63.63;32.97;;;;;;;;;;757245;181;916009;-62
2021/10/08 07:58:01;;;;;;;71.23;32.97;;;;;;;;;;768100;181;921035;-62
2021/10/08 08:00:28;;;;;;;62.80;31.20;;;;;;;;;;772340;181;921955;-63
2021/10/08 08:02:53;;;;;;;73.00;32.47;;;;;;;;;;769844;182;768001;-63
2021/10/08 08:05:19;;;;;;;55.87;30.97;;;;;;;;;;772087;182;626621;-62
2021/10/08 08:07:46;;;;;;;61.83;27.93;;;;;;;;;;771444;180;916220;-61
2021/10/08 08:10:13;;;;;;;55.03;28.53;;;;;;;;;;766696;181;628417;-62
2021/10/08 08:12:36;;;;;;;64.63;34.90;;;;;;;;;;770952;181;638535;-62
2021/10/08 08:15:02;;;;;;;61.43;33.77;;;;;;;;;;773930;182;627644;-62
2021/10/08 08:17:28;;;;;;;54.53;31.70;;;;;;;;;;767522;182;627200;-64
2021/10/08 08:19:54;;;;;;;64.43;29.90;;;;;;;;;;766323;182;920227;-62
2021/10/08 08:22:20;;;;;;;63.90;33.67;;;;;;;;;;763307;181;919453;-62
2021/10/08 08:24:46;;;;;;;67.23;32.90;;;;;;;;;;762411;181;918998;-62
2021/10/08 08:27:11;;;;;;;59.20;32.60;;;;;;;;;;767757;181;919848;-62
2021/10/08 08:29:37;;;;;;;64.60;33.23;;;;;;;;;;764460;182;919280;-63
2021/10/08 08:32:03;;;;;;;64.83;31.53;;;;;;;;;;767631;181;918635;-62
2021/10/08 08:34:29;;;;;;;52.00;28.38;;;;;;;;;;756291;183;924415;-61
2021/10/08 08:36:55;;;;;;;59.80;28.73;;;;;;;;;;766723;181;919247;-62
2021/10/08 08:39:21;;;;;;;58.33;27.87;;;;;;;;;;765184;182;918014;-62
2021/10/08 08:41:47;;;;;;;69.50;32.27;;;;;;;;;;761488;182;919498;-62
2021/10/08 08:44:12;;;;;;;61.23;31.93;;;;;;;;;;764379;181;919157;-62
2021/10/08 08:46:38;;;;;;;65.87;30.15;;;;;;;;;;764043;182;919293;-61
2021/10/08 08:49:04;;;;;;;61.37;30.30;;;;;;;;;;760930;182;920300;-63
2021/10/08 08:51:31;;;;;;;74.00;31.10;;;;;;;;;;761441;182;919310;-63
2021/10/08 08:53:58;;;;;;;62.23;27.10;;;;;;;;;;747956;186;919856;-63
2021/10/08 08:56:25;;;;;;;49.27;31.30;;;;;;;;;;774170;181;920090;-62
2021/10/08 08:58:56;;;;;;;71.37;31.67;;;;;;;;;;760579;182;918882;-62
2021/10/08 09:01:22;;;;;;;66.27;31.67;;;;;;;;;;766418;181;919458;-62
2021/10/08 09:03:54;;;;;;;71.73;33.80;;;;;;;;;;750606;186;918992;-61
2021/10/08 09:06:20;;;;;;;65.87;31.40;;;;;;;;;;748405;188;944450;-62
2021/10/08 09:08:45;;;;;;;73.83;29.57;;;;;;;;;;756408;181;950054;-63
2021/10/08 09:11:11;;;;;;;68.40;31.83;;;;;;;;;;751056;186;925672;-62
2021/10/08 09:13:37;;;;;;;58.47;34.23;;;;;;;;;;773537;182;918466;-61
2021/10/08 09:16:03;;;;;;;55.70;31.93;;;;;;;;;;758934;182;927014;-63
2021/10/08 09:18:29;;;;;;;60.57;30.30;;;;;;;;;;758658;182;919641;-62
2021/10/08 09:20:59;;;;;;;45.60;26.73;;;;;;;;;;768550;182;918816;-63
2021/10/08 09:23:30;;;;;;;67.33;32.13;;;;;;;;;;766848;182;950787;-62
2021/10/08 09:25:56;;;;;;;58.00;31.60;;;;;;;;;;763095;182;920365;-61
2021/10/08 09:28:22;;;;;;;57.83;31.47;;;;;;;;;;765686;182;919329;-63
2021/10/08 09:30:50;;;;;;;61.05;34.40;;;;;;;;;;756910;184;919270;-61
2021/10/08 09:33:15;;;;;;;59.03;33.47;;;;;;;;;;771801;182;920011;-62
2021/10/08 09:35:41;;;;;;;60.40;31.53;;;;;;;;;;766015;182;919342;-62
2021/10/08 09:38:11;;;;;;;67.77;32.10;;;;;;;;;;767891;181;918592;-62
2021/10/08 09:40:35;;;;;;;53.57;30.80;;;;;;;;;;765534;182;919213;-63
2021/10/08 09:43:01;;;;;;;60.03;34.57;;;;;;;;;;766452;182;921456;-62
2021/10/08 09:45:41;;;;;;;75.00;37.38;;;;;;;;;;763787;180;919050;-62
2021/10/08 09:48:07;;;;;;;83.00;36.17;;;;;;;;;;761910;182;1021198;-62
2021/10/08 09:50:33;;;;;;;63.10;35.70;;;;;;;;;;767866;182;919653;-61
2021/10/08 09:53:14;;;;;;;64.97;39.80;;;;;;;;;;762594;182;919109;-61
2021/10/08 09:55:40;;;;;;;62.70;34.90;;;;;;;;;;760121;180;916222;-62
2021/10/08 09:58:07;;;;;;;67.30;36.17;;;;;;;;;;751033;184;916530;-63
2021/10/08 10:00:34;;;;;;;77.00;39.95;;;;;;;;;;766138;182;919890;-63
2021/10/08 10:02:59;;;;;;;63.33;35.57;;;;;;;;;;765287;182;918931;-62
2021/10/08 10:05:25;;;;;;;63.42;37.22;;;;;;;;;;768492;179;922363;-63
2021/10/08 10:07:51;;;;;;;68.00;39.53;;;;;;;;;;758009;182;918871;-63
2021/10/08 10:10:17;;;;;;;67.00;38.57;;;;;;;;;;768868;180;919828;-62
2021/10/08 10:12:43;;;;;;;69.63;39.53;;;;;;;;;;763700;181;919550;-62
2021/10/08 10:15:09;;;;;;;67.87;37.33;;;;;;;;;;764881;181;919878;-63
2021/10/08 10:17:36;;;;;;;63.63;38.93;;;;;;;;;;771177;181;919910;-62
2021/10/08 10:20:00;;;;;;;51.47;28.43;;;;;;;;;;768030;181;919548;-62
2021/10/08 10:22:26;;;;;;;59.93;37.57;;;;;;;;;;764319;181;1020875;-62
2021/10/08 10:24:52;;;;;;;69.57;37.07;;;;;;;;;;769168;182;918402;-64
2021/10/08 10:27:18;;;;;;;58.87;28.53;;;;;;;;;;768412;182;939699;-63
2021/10/08 10:29:44;;;;;;;65.25;38.10;;;;;;;;;;763577;180;919480;-63
2021/10/08 10:32:10;;;;;;;68.83;38.80;;;;;;;;;;764620;182;919910;-64
2021/10/08 10:34:36;;;;;;;73.97;40.50;;;;;;;;;;770553;182;919543;-63
2021/10/08 10:37:01;;;;;;;64.20;35.30;;;;;;;;;;762844;182;919493;-63
2021/10/08 10:39:27;;;;;;;64.50;40.53;;;;;;;;;;762450;181;918962;-63
2021/10/08 10:41:59;;;;;;;73.60;36.83;;;;;;;;;;768010;182;918544;-62
2021/10/08 10:44:28;;;;;;;68.97;38.50;;;;;;;;;;763903;182;914260;-63
2021/10/08 10:46:58;;;;;;;63.87;41.75;;;;;;;;;;762978;182;919602;-61
2021/10/08 10:49:34;;;;;;;64.37;37.10;;;;;;;;;;762928;182;918622;-62
2021/10/08 10:52:12;;;;;;;64.45;37.92;;;;;;;;;;761821;182;630220;-62
2021/10/08 10:54:53;;;;;;;62.47;38.20;;;;;;;;;;765117;182;915990;-63
2021/10/08 10:57:33;;;;;;;63.87;38.17;;;;;;;;;;770439;182;916245;-63
2021/10/08 11:00:05;;;;;;;72.07;38.85;;;;;;;;;;772794;182;918585;-63
2021/10/08 11:02:31;;;;;;;69.63;36.97;;;;;;;;;;766279;183;924382;-63
2021/10/08 11:05:03;;;;;;;77.68;42.10;;;;;;;;;;762945;181;918468;-64
2021/10/08 11:07:28;;;;;;;60.33;38.50;;;;;;;;;;764117;180;919805;-63
2021/10/08 11:10:12;;;;;;;67.45;37.80;;;;;;;;;;773053;182;920218;-63
2021/10/08 11:12:40;;;;;;;57.80;37.07;;;;;;;;;;770591;182;614586;-63
2021/10/08 11:15:12;;;;;;;53.60;29.40;;;;;;;;;;762375;182;918745;-63
2021/10/08 11:17:44;;;;;;;79.95;38.08;;;;;;;;;;757642;182;919312;-63
2021/10/08 11:20:09;;;;;;;69.27;37.63;;;;;;;;;;763757;182;918998;-64
2021/10/08 11:22:43;;;;;;;69.97;42.67;;;;;;;;;;768355;182;919587;-62
2021/10/08 11:25:10;;;;;;;60.83;36.90;;;;;;;;;;759924;182;918738;-64
2021/10/08 11:27:35;;;;;;;69.35;39.90;;;;;;;;;;752249;183;919399;-63
2021/10/08 11:30:01;;;;;;;75.70;37.53;;;;;;;;;;753590;183;917977;-64
2021/10/08 11:32:27;;;;;;;80.28;38.00;;;;;;;;;;774779;180;918853;-63
2021/10/08 11:34:53;;;;;;;79.47;40.80;;;;;;;;;;767392;181;919624;-63
2021/10/08 11:37:19;;;;;;;79.73;37.87;;;;;;;;;;762803;180;919615;-63
2021/10/08 11:39:45;;;;;;;62.13;35.80;;;;;;;;;;766838;182;918926;-62
2021/10/08 11:42:14;;;;;;;61.07;31.70;;;;;;;;;;772123;182;918752;-64
2021/10/08 11:44:43;;;;;;;65.23;35.60;;;;;;;;;;765410;180;919580;-63
2021/10/08 11:47:16;;;;;;;65.97;33.50;;;;;;;;;;762081;181;918962;-62
2021/10/08 11:49:50;;;;;;;70.20;36.07;;;;;;;;;;750212;184;918051;-63
2021/10/08 11:52:10;;;;;;;69.87;36.00;;;;;;;;;;769336;182;919282;-62
2021/10/08 11:54:34;;;;;;;80.47;37.50;;;;;;;;;;767167;182;919693;-64
2021/10/08 11:57:01;;;;;;;58.73;35.83;;;;;;;;;;754285;183;919327;-64
2021/10/08 11:59:27;;;;;;;68.90;33.67;;;;;;;;;;769576;182;919975;-63
2021/10/08 12:02:07;;;;;;;64.37;36.50;;;;;;;;;;764531;182;918836;-65
2021/10/08 12:04:33;;;;;;;57.47;31.90;;;;;;;;;;766938;182;918389;-64
2021/10/08 12:07:04;;;;;;;62.47;37.73;;;;;;;;;;766358;182;919552;-66
2021/10/08 12:09:30;;;;;;;63.50;34.57;;;;;;;;;;767973;181;919236;-64
2021/10/08 12:11:56;;;;;;;59.17;33.03;;;;;;;;;;764079;183;918799;-63
2021/10/08 12:14:22;;;;;;;73.90;36.43;;;;;;;;;;744635;186;921218;-63
2021/10/08 12:16:48;;;;;;;69.60;36.97;;;;;;;;;;748344;187;918822;-64
2021/10/08 12:19:14;;;;;;;58.77;35.33;;;;;;;;;;750316;187;919152;-63
2021/10/08 12:21:39;;;;;;;61.57;32.87;;;;;;;;;;745296;187;921386;-63
2021/10/08 12:24:05;;;;;;;57.83;34.20;;;;;;;;;;746505;187;918783;-63
2021/10/08 12:26:31;;;;;;;56.70;32.20;;;;;;;;;;749440;187;919035;-63
2021/10/08 12:28:57;;;;;;;55.93;33.67;;;;;;;;;;759725;181;919950;-64
2021/10/08 12:31:23;;;;;;;55.05;28.30;;;;;;;;;;768412;180;920260;-64
2021/10/08 12:33:49;;;;;;;66.12;33.97;;;;;;;;;;766236;181;919606;-62
2021/10/08 12:36:19;;;;;;;70.83;33.03;;;;;;;;;;766228;182;921364;-63
2021/10/08 12:38:53;;;;;;;50.80;28.60;;;;;;;;;;765640;180;920348;-64
2021/10/08 12:41:22;;;;;;;48.90;27.33;;;;;;;;;;759212;182;919500;-65
2021/10/08 12:43:47;;;;;;;58.50;31.83;;;;;;;;;;764262;181;939528;-64
2021/10/08 12:46:19;;;;;;;62.07;36.37;;;;;;;;;;770317;181;919260;-63
2021/10/08 12:48:39;;;;;;;63.43;37.50;;;;;;;;;;766499;181;926981;-63
2021/10/08 12:51:05;;;;;;;56.33;31.40;;;;;;;;;;762777;182;919386;-63
2021/10/08 12:53:31;;;;;;;87.93;38.80;;;;;;;;;;770497;182;915153;-63
2021/10/08 12:55:57;;;;;;;56.25;35.20;;;;;;;;;;755635;180;916366;-63
2021/10/08 12:58:24;;;;;;;60.23;33.20;;;;;;;;;;764465;181;919330;-64
2021/10/08 13:00:56;;;;;;;64.43;32.37;;;;;;;;;;768906;182;920148;-63
2021/10/08 13:03:27;;;;;;;56.17;29.50;;;;;;;;;;767796;182;920259;-64
2021/10/08 13:05:54;;;;;;;54.10;32.60;;;;;;;;;;769311;182;920694;-64
2021/10/08 13:08:18;;;;;;;68.57;36.60;;;;;;;;;;761013;183;918137;-62
2021/10/08 13:11:03;;;;;;;62.80;32.20;;;;;;;;;;769883;182;919738;-63
2021/10/08 13:13:31;;;;;;;50.50;31.58;;;;;;;;;;771317;181;920485;-63
2021/10/08 13:15:58;;;;;;;57.00;33.10;;;;;;;;;;776431;179;918199;-64
2021/10/08 13:18:23;;;;;;;86.10;63.57;;;;;;;;;;762146;181;918339;-63
2021/10/08 13:20:50;;;;;;;64.03;31.50;;;;;;;;;;749453;186;916716;-64
2021/10/08 13:23:16;;;;;;;60.53;29.67;;;;;;;;;;755622;186;916922;-63
2021/10/08 13:25:43;;;;;;;57.97;32.40;;;;;;;;;;754354;181;919111;-66
2021/10/08 13:28:09;;;;;;;64.13;32.33;;;;;;;;;;765959;182;920310;-63
2021/10/08 13:30:34;;;;;;;72.50;32.60;;;;;;;;;;770757;181;921115;-63
2021/10/08 13:33:00;;;;;;;59.40;30.30;;;;;;;;;;763162;182;919410;-64
2021/10/08 13:35:26;;;;;;;69.85;30.90;;;;;;;;;;764282;181;921767;-64
2021/10/08 13:37:52;;;;;;;53.93;30.43;;;;;;;;;;759404;182;917291;-64
2021/10/08 13:40:18;;;;;;;48.50;30.70;;;;;;;;;;768205;181;918142;-63
2021/10/08 13:42:44;;;;;;;65.03;32.40;;;;;;;;;;765174;179;918678;-64
2021/10/08 13:45:10;;;;;;;54.10;28.07;;;;;;;;;;765452;180;922301;-64
2021/10/08 13:47:35;;;;;;;54.97;27.48;;;;;;;;;;770538;181;914869;-64
2021/10/08 13:50:01;;;;;;;89.23;34.40;;;;;;;;;;762958;181;945024;-64
2021/10/08 13:52:27;;;;;;;58.50;32.37;;;;;;;;;;768805;179;919306;-63
2021/10/08 13:54:53;;;;;;;47.17;29.63;;;;;;;;;;769884;182;916928;-64
2021/10/08 13:57:19;;;;;;;49.17;30.23;;;;;;;;;;763966;182;913883;-63
2021/10/08 13:59:45;;;;;;;52.63;31.53;;;;;;;;;;766219;181;914735;-65